Kimball, Minnesota
Current Conditions -  °F | °C
As of 10:33 PM on Saturday 25 Oct 2014 (Local Time) from KLJF Reporting Station
Clear Clear  
Wind Chill: 45°   Ceiling: Unl
Heat Index: 45°   Visibility: 10mi
Dew Point: 34°   Wind: 0mph
Humidity: 66%   Direction: NA
Pressure: 30.06"   Gusts: NA
Location:  45.31°N, 94.3°W
Report Text: KLJF 260333Z AUTO 00000KT 10SM CLR 07/01 A3006 RMK AO2
Loading
Personal Weather Stations






























Interactive Weather Map
Tropical Storm Tracking
New forecast layout! Learn more

10-Day Weather Forecast

Advertisements
Track Severe Weather on mobile